createdAt,value
2022-08-14T00:00:54.351Z,24.11
2022-08-14T00:06:00.125Z,24.05
2022-08-14T00:11:01.902Z,24.25
2022-08-14T00:16:08.011Z,24.20
2022-08-14T00:21:11.146Z,24.24
2022-08-14T00:26:21.478Z,24.12
2022-08-14T00:31:43.991Z,24.08
2022-08-14T00:36:49.351Z,23.94
2022-08-14T00:41:51.394Z,23.87
2022-08-14T00:46:53.975Z,23.88
2022-08-14T00:52:00.688Z,23.74
2022-08-14T00:57:02.483Z,23.72
2022-08-14T01:02:05.752Z,23.69
2022-08-14T01:07:11.846Z,23.60
2022-08-14T01:12:27.370Z,23.63
2022-08-14T01:17:52.360Z,23.49
2022-08-14T01:22:54.099Z,23.41
2022-08-14T01:27:58.039Z,23.38
2022-08-14T01:32:59.717Z,23.36
2022-08-14T01:38:01.719Z,23.32
2022-08-14T01:43:18.671Z,23.39
2022-08-14T01:48:24.331Z,23.27
2022-08-14T01:53:32.749Z,23.38
2022-08-14T01:58:38.074Z,23.29
2022-08-14T02:03:59.680Z,23.36
2022-08-14T02:09:04.370Z,23.42
2022-08-14T02:14:31.079Z,23.29
2022-08-14T02:19:35.677Z,23.12
2022-08-14T02:24:39.645Z,23.14
2022-08-14T02:30:00.171Z,23.02
2022-08-14T02:35:11.057Z,22.99
2022-08-14T02:40:12.942Z,22.89
2022-08-14T02:45:15.471Z,22.77
2022-08-14T02:50:19.952Z,22.52
2022-08-14T02:55:31.044Z,22.60
2022-08-14T03:00:39.926Z,22.50
2022-08-14T03:05:42.192Z,22.39
2022-08-14T03:10:48.994Z,22.49
2022-08-14T03:15:55.511Z,22.24
2022-08-14T03:21:05.739Z,22.07
2022-08-14T03:26:18.340Z,22.04
2022-08-14T03:31:23.756Z,21.98
2022-08-14T03:37:37.421Z,21.96
2022-08-14T03:41:55.213Z,21.89
2022-08-14T03:46:56.813Z,21.94
2022-08-14T03:52:01.163Z,22.08
2022-08-14T03:57:03.482Z,22.12
2022-08-14T04:02:31.980Z,22.14
2022-08-14T04:07:26.868Z,22.24
2022-08-14T04:12:34.720Z,22.26
2022-08-14T04:17:37.580Z,22.19
2022-08-14T04:22:44.133Z,22.15
2022-08-14T04:27:48.608Z,22.23
2022-08-14T04:33:08.699Z,22.14
2022-08-14T04:38:38.376Z,22.30
2022-08-14T04:43:41.633Z,22.30
2022-08-14T04:48:50.961Z,22.32
2022-08-14T04:53:54.661Z,22.32
2022-08-14T04:59:03.733Z,22.35
2022-08-14T05:04:05.711Z,22.37
2022-08-14T05:09:13.971Z,22.32
2022-08-14T05:14:46.285Z,22.42
2022-08-14T05:19:44.797Z,22.54
2022-08-14T05:25:03.956Z,22.45
2022-08-14T05:30:07.213Z,22.66
2022-08-14T05:35:11.509Z,22.76
2022-08-14T05:40:13.258Z,22.90
2022-08-14T05:45:17.118Z,22.95
2022-08-14T05:50:19.880Z,23.01
2022-08-14T05:55:22.753Z,23.04
2022-08-14T06:00:34.806Z,23.09
2022-08-14T06:05:41.153Z,23.20
2022-08-14T06:10:42.747Z,23.38
2022-08-14T06:15:45.439Z,23.53
2022-08-14T06:20:48.316Z,23.55
2022-08-14T06:25:53.395Z,23.64
2022-08-14T06:30:55.702Z,23.87
2022-08-14T06:35:57.847Z,23.76
2022-08-14T06:40:59.551Z,23.92
2022-08-14T06:46:03.208Z,24.05
2022-08-14T06:51:04.869Z,24.20
2022-08-14T06:56:07.550Z,24.26
2022-08-14T07:01:28.040Z,24.30
2022-08-14T07:06:45.759Z,24.31
2022-08-14T07:11:49.712Z,24.58
2022-08-14T07:16:51.496Z,24.76
2022-08-14T07:21:53.330Z,24.87
2022-08-14T07:26:54.936Z,24.87
2022-08-14T07:31:56.720Z,25.02
2022-08-14T07:37:00.987Z,25.18
2022-08-14T07:42:03.102Z,25.30
2022-08-14T07:47:05.322Z,25.49
2022-08-14T07:52:07.307Z,25.56
2022-08-14T07:57:12.154Z,25.73
2022-08-14T08:02:19.599Z,25.85
2022-08-14T08:07:29.903Z,26.00
2022-08-14T08:12:33.648Z,26.06
2022-08-14T08:17:42.376Z,26.24
2022-08-14T08:22:48.442Z,26.41
2022-08-14T08:27:55.819Z,26.58
2022-08-14T08:33:01.272Z,26.65
2022-08-14T08:38:14.281Z,26.79
2022-08-14T08:43:35.014Z,26.97
2022-08-14T08:48:52.105Z,27.10
2022-08-14T08:54:06.728Z,27.24
2022-08-14T08:59:31.427Z,27.34
2022-08-14T09:04:45.316Z,27.53
2022-08-14T09:09:58.977Z,27.69
2022-08-14T09:15:12.184Z,27.74
2022-08-14T09:20:25.971Z,27.82
2022-08-14T09:25:59.842Z,28.11
2022-08-14T09:30:57.838Z,28.32
2022-08-14T09:36:32.052Z,28.35
2022-08-14T09:42:20.280Z,28.50
2022-08-14T09:47:46.882Z,28.87
2022-08-14T09:52:58.850Z,28.82
2022-08-14T09:58:14.833Z,28.87
2022-08-14T10:03:34.051Z,29.08
2022-08-14T10:08:51.071Z,29.30
2022-08-14T10:13:57.105Z,29.26
2022-08-14T10:19:19.151Z,29.56
2022-08-14T10:24:36.528Z,29.72
2022-08-14T10:29:40.909Z,29.85
2022-08-14T10:34:42.932Z,29.84
2022-08-14T10:40:05.791Z,30.28
2022-08-14T10:45:25.707Z,30.08
2022-08-14T10:50:33.308Z,30.35
2022-08-14T10:55:45.502Z,30.32
2022-08-14T11:01:00.605Z,30.40
2022-08-14T11:06:15.195Z,30.58
2022-08-14T11:11:18.377Z,30.62
2022-08-14T11:16:20.343Z,30.59
2022-08-14T11:21:24.508Z,30.85
2022-08-14T11:26:34.750Z,30.90
2022-08-14T11:31:39.275Z,31.02
2022-08-14T11:37:02.267Z,31.04
2022-08-14T11:42:55.313Z,31.06
2022-08-14T11:47:35.201Z,31.24
2022-08-14T11:52:45.978Z,31.28
2022-08-14T11:58:09.346Z,31.44
2022-08-14T12:03:14.443Z,31.54
2022-08-14T12:08:24.292Z,31.47
2022-08-14T12:13:32.342Z,31.46
2022-08-14T12:18:39.669Z,31.56
2022-08-14T12:23:41.417Z,31.68
2022-08-14T12:28:59.306Z,31.78
2022-08-14T12:34:03.888Z,31.92
2022-08-14T12:39:25.650Z,32.05
2022-08-14T12:44:37.340Z,31.80
2022-08-14T12:49:39.127Z,31.99
2022-08-14T12:54:56.088Z,32.17
2022-08-14T13:00:22.969Z,32.16
2022-08-14T13:05:29.912Z,32.27
2022-08-14T13:10:46.542Z,32.51
2022-08-14T13:15:57.478Z,32.59
2022-08-14T13:21:01.937Z,32.55
2022-08-14T13:26:04.527Z,32.57
2022-08-14T13:31:11.033Z,32.56
2022-08-14T13:36:24.506Z,32.58
2022-08-14T13:41:36.474Z,32.60
2022-08-14T13:46:39.437Z,32.63
2022-08-14T13:51:50.859Z,32.69
2022-08-14T13:56:54.812Z,32.69
2022-08-14T14:02:05.204Z,32.80
2022-08-14T14:07:11.446Z,32.43
2022-08-14T14:12:38.034Z,32.18
2022-08-14T14:17:38.914Z,31.96
2022-08-14T14:23:02.346Z,32.48
2022-08-14T14:28:05.152Z,32.92
2022-08-14T14:33:41.857Z,33.03
2022-08-14T14:38:33.837Z,33.02
2022-08-14T14:43:37.337Z,32.85
2022-08-14T14:48:46.581Z,32.75
2022-08-14T14:53:57.612Z,32.79
2022-08-14T14:59:00.477Z,32.76
2022-08-14T15:04:04.209Z,32.38
2022-08-14T15:09:09.760Z,32.25
2022-08-14T15:14:55.989Z,32.27
2022-08-14T15:19:43.128Z,32.56
2022-08-14T15:24:58.532Z,32.61
2022-08-14T15:30:00.555Z,32.62
2022-08-14T15:35:02.653Z,32.50
2022-08-14T15:40:06.027Z,32.50
2022-08-14T15:45:17.215Z,32.58
2022-08-14T15:50:19.508Z,32.66
2022-08-14T15:55:22.484Z,32.88
2022-08-14T16:00:44.320Z,33.00
2022-08-14T16:05:51.329Z,32.83
2022-08-14T16:10:52.929Z,32.94
2022-08-14T16:15:54.606Z,32.65
2022-08-14T16:20:59.758Z,32.32
2022-08-14T16:26:02.322Z,32.27
2022-08-14T16:31:05.817Z,32.03
2022-08-14T16:36:26.611Z,32.03
2022-08-14T16:41:32.758Z,32.00
2022-08-14T16:46:43.899Z,31.94
2022-08-14T16:51:46.492Z,31.92
2022-08-14T16:56:54.552Z,32.08
2022-08-14T17:01:59.036Z,31.98
2022-08-14T17:07:03.597Z,31.91
2022-08-14T17:12:28.730Z,31.63
2022-08-14T17:17:32.959Z,31.60
2022-08-14T17:22:50.767Z,31.56
2022-08-14T17:28:49.688Z,31.43
2022-08-14T17:39:06.530Z,31.00
2022-08-14T17:44:34.341Z,30.83
2022-08-14T17:49:51.802Z,30.72
2022-08-14T17:55:00.722Z,30.65
2022-08-14T18:00:04.309Z,30.49
2022-08-14T18:05:09.674Z,30.32
2022-08-14T18:10:32.216Z,30.18
2022-08-14T18:15:37.257Z,30.06
2022-08-14T18:21:41.043Z,29.96
2022-08-14T18:26:04.858Z,29.89
2022-08-14T18:31:21.661Z,29.72
2022-08-14T18:36:56.613Z,29.54
2022-08-14T18:42:23.664Z,29.44
2022-08-14T18:47:26.182Z,29.37
2022-08-14T18:52:37.054Z,29.17
2022-08-14T18:57:58.475Z,28.96
2022-08-14T19:03:01.406Z,28.89
2022-08-14T19:08:18.495Z,28.86
2022-08-14T19:13:48.438Z,28.77
2022-08-14T19:18:53.159Z,28.76
2022-08-14T19:24:30.696Z,28.63
2022-08-14T19:29:37.846Z,28.50
2022-08-14T19:34:52.389Z,28.35
2022-08-14T19:39:56.109Z,28.35
2022-08-14T19:44:57.915Z,28.16
2022-08-14T19:50:30.254Z,28.05
2022-08-14T19:55:34.098Z,28.01
2022-08-14T20:00:51.654Z,27.89
2022-08-14T20:06:00.515Z,27.76
2022-08-14T20:11:42.962Z,27.70
2022-08-14T20:16:49.328Z,27.63
2022-08-14T20:21:58.191Z,27.50
2022-08-14T20:27:33.321Z,27.41
2022-08-14T20:32:45.721Z,27.38
2022-08-14T20:37:47.484Z,27.40
2022-08-14T20:43:20.541Z,27.24
2022-08-14T20:48:51.192Z,27.33
2022-08-14T20:54:02.848Z,27.21
2022-08-14T20:59:25.960Z,27.13
2022-08-14T21:04:36.220Z,27.11
2022-08-14T21:10:04.849Z,27.12
2022-08-14T21:15:13.919Z,27.04
2022-08-14T21:20:26.439Z,27.02
2022-08-14T21:25:31.969Z,27.01
2022-08-14T21:30:51.756Z,26.89
2022-08-14T21:35:56.236Z,26.88
2022-08-14T21:40:57.932Z,26.79
2022-08-14T21:46:00.791Z,26.81
2022-08-14T21:51:53.611Z,26.85
2022-08-14T21:56:56.793Z,26.63
2022-08-14T22:02:03.805Z,26.66
2022-08-14T22:07:17.348Z,26.79
2022-08-14T22:12:57.696Z,26.61
2022-08-14T22:17:44.345Z,26.65
2022-08-14T22:22:46.509Z,26.40
2022-08-14T22:27:55.977Z,26.42
2022-08-14T22:33:00.135Z,26.25
2022-08-14T22:38:36.417Z,26.18
2022-08-14T22:43:24.169Z,26.10
2022-08-14T22:48:25.668Z,26.16
2022-08-14T22:53:31.104Z,26.00
2022-08-14T22:58:35.040Z,25.91
2022-08-14T23:03:36.943Z,25.70
2022-08-14T23:08:57.535Z,25.72
2022-08-14T23:14:02.287Z,25.54
2022-08-14T23:19:10.920Z,25.52
2022-08-14T23:24:13.725Z,25.59
2022-08-14T23:29:20.368Z,25.67
2022-08-14T23:34:24.319Z,25.80
2022-08-14T23:39:30.082Z,25.78
2022-08-14T23:44:35.246Z,25.81
2022-08-14T23:49:56.915Z,25.70
2022-08-14T23:55:01.347Z,25.49
